Time;durP1;ratioP1;P1;durP2;ratioP2;P2;SDS_P1;SDS_P2;PMS_P1;PMS_P2;Temp;Humidity;BMP_temperature;BMP_pressure;BME280_temperature;BME280_humidity;BME280_pressure;Samples;Min_cycle;Max_cycle;Signal;HPM_P1;HPM_P2
2022/02/22 00:02:08;;;;;;;1.25;0.80;;;6.00;99.90;;;;;;5105913;27;20468;-69
2022/02/22 00:04:36;;;;;;;7.70;2.00;;;5.90;99.90;;;;;;5105908;27;20020;-70
2022/02/22 00:07:05;;;;;;;1.02;0.90;;;5.90;99.90;;;;;;5104809;28;20020;-70
2022/02/22 00:09:31;;;;;;;10.95;1.75;;;6.00;99.90;;;;;;5109800;27;20015;-70
2022/02/22 00:11:57;;;;;;;14.93;1.83;;;6.00;99.90;;;;;;5105876;28;20051;-69
2022/02/22 00:14:22;;;;;;;2.80;1.20;;;6.00;99.90;;;;;;5107311;28;20112;-69
2022/02/22 00:16:54;;;;;;;5.10;1.25;;;6.00;99.90;;;;;;5106539;28;20489;-69
2022/02/22 00:19:19;;;;;;;6.93;1.95;;;6.00;99.90;;;;;;5106943;28;20050;-70
2022/02/22 00:21:45;;;;;;;1.38;1.00;;;6.00;99.90;;;;;;5102508;27;20028;-70
2022/02/22 00:24:10;;;;;;;4.53;1.58;;;6.00;99.90;;;;;;5104552;28;20031;-69
2022/02/22 00:26:36;;;;;;;7.43;1.60;;;5.90;99.90;;;;;;5106100;28;20019;-69
2022/02/22 00:29:02;;;;;;;5.40;1.17;;;5.80;99.90;;;;;;5091945;28;20128;-68
2022/02/22 00:31:27;;;;;;;5.30;1.10;;;5.60;99.90;;;;;;5106714;28;20015;-68
2022/02/22 00:33:53;;;;;;;4.18;1.30;;;5.40;99.90;;;;;;5113879;27;20028;-68
2022/02/22 00:36:18;;;;;;;11.45;3.10;;;5.30;99.90;;;;;;5105101;28;20016;-68
2022/02/22 00:38:44;;;;;;;12.20;2.15;;;5.20;99.90;;;;;;5107183;27;20047;-68
2022/02/22 00:41:10;;;;;;;3.95;1.05;;;5.20;99.90;;;;;;5102493;28;20023;-68
2022/02/22 00:43:35;;;;;;;13.63;1.55;;;5.20;99.90;;;;;;5101844;28;20049;-68
2022/02/22 00:46:01;;;;;;;0.95;0.88;;;5.10;99.90;;;;;;5101893;28;20024;-68
2022/02/22 00:48:26;;;;;;;1.48;1.10;;;5.10;99.90;;;;;;5100789;28;20030;-68
2022/02/22 00:50:52;;;;;;;17.10;1.77;;;5.10;99.90;;;;;;5103057;28;20095;-68
2022/02/22 00:53:19;;;;;;;4.22;1.98;;;5.10;99.90;;;;;;5108273;27;20040;-69
2022/02/22 00:55:44;;;;;;;21.35;2.55;;;5.20;99.90;;;;;;5103484;27;20020;-69
2022/02/22 00:58:10;;;;;;;8.60;2.25;;;5.20;99.90;;;;;;5105445;27;20031;-69
2022/02/22 01:00:36;;;;;;;5.47;0.88;;;5.20;99.90;;;;;;5105673;28;20028;-69
2022/02/22 01:03:01;;;;;;;10.02;1.33;;;5.10;99.90;;;;;;5109264;28;20036;-69
2022/02/22 01:05:27;;;;;;;4.40;1.10;;;5.20;99.90;;;;;;5102910;28;20070;-69
2022/02/22 01:07:53;;;;;;;4.15;1.85;;;5.20;99.90;;;;;;5109017;28;20023;-71
2022/02/22 01:10:18;;;;;;;10.85;1.50;;;5.10;99.90;;;;;;5102694;27;20546;-71
2022/02/22 01:12:44;;;;;;;2.47;1.00;;;5.10;99.90;;;;;;5108160;28;20027;-71
2022/02/22 01:15:09;;;;;;;2.90;1.67;;;5.10;99.90;;;;;;5102218;28;20024;-71
2022/02/22 01:17:35;;;;;;;2.60;0.98;;;5.10;99.90;;;;;;5101784;28;20018;-71
2022/02/22 01:20:05;;;;;;;7.88;1.98;;;5.00;99.90;;;;;;5103079;28;20081;-71
2022/02/22 01:22:31;;;;;;;1.90;1.10;;;5.00;99.90;;;;;;5100796;28;20058;-69
2022/02/22 01:24:57;;;;;;;16.80;1.63;;;5.00;99.90;;;;;;5086701;28;20447;-71
2022/02/22 01:27:22;;;;;;;11.18;2.15;;;4.90;99.90;;;;;;5086401;28;20807;-69
2022/02/22 01:29:48;;;;;;;6.10;1.02;;;5.00;99.90;;;;;;5096023;28;20398;-69
2022/02/22 01:32:13;;;;;;;8.40;2.15;;;5.00;99.90;;;;;;5102456;28;20028;-69
2022/02/22 01:34:39;;;;;;;4.13;1.35;;;4.90;99.90;;;;;;5086416;28;20042;-69
2022/02/22 01:37:05;;;;;;;2.33;1.25;;;4.90;99.90;;;;;;5102863;28;20016;-69
2022/02/22 01:39:30;;;;;;;3.15;1.30;;;4.90;99.90;;;;;;5100639;28;20028;-69
2022/02/22 01:41:56;;;;;;;1.20;0.85;;;4.90;99.90;;;;;;5083685;28;20071;-69
2022/02/22 01:44:23;;;;;;;4.57;1.05;;;4.90;99.90;;;;;;5102736;28;20077;-69
2022/02/22 01:46:56;;;;;;;3.92;1.98;;;4.80;99.90;;;;;;5101235;28;20019;-69
2022/02/22 01:49:22;;;;;;;2.13;1.00;;;4.80;99.90;;;;;;5094770;28;20484;-69
2022/02/22 01:51:48;;;;;;;2.28;0.98;;;4.80;99.90;;;;;;5107572;27;20020;-69
2022/02/22 01:54:13;;;;;;;5.53;1.75;;;4.80;99.90;;;;;;5101873;28;20047;-71
2022/02/22 01:56:40;;;;;;;1.45;1.20;;;4.80;99.90;;;;;;5102973;28;20095;-69
2022/02/22 01:59:07;;;;;;;3.78;1.13;;;4.70;99.90;;;;;;5101909;27;20495;-69
2022/02/22 02:01:32;;;;;;;3.17;1.65;;;4.70;99.90;;;;;;5106244;28;20031;-69
2022/02/22 02:03:58;;;;;;;5.40;1.30;;;4.60;99.90;;;;;;5108607;27;20119;-69
2022/02/22 02:06:24;;;;;;;16.55;2.15;;;4.60;99.90;;;;;;5089006;28;20024;-69
2022/02/22 02:08:49;;;;;;;1.90;1.10;;;4.50;99.90;;;;;;5111080;27;20422;-70
2022/02/22 02:11:15;;;;;;;2.05;1.35;;;4.60;99.90;;;;;;5102724;27;20028;-70
2022/02/22 02:13:41;;;;;;;12.63;1.58;;;4.50;99.90;;;;;;5093524;28;20047;-70
2022/02/22 02:16:07;;;;;;;3.83;1.58;;;4.60;99.90;;;;;;5097640;28;20387;-70
2022/02/22 02:18:33;;;;;;;13.80;1.45;;;4.50;99.90;;;;;;5102838;28;20023;-70
2022/02/22 02:20:59;;;;;;;5.35;1.63;;;4.50;99.90;;;;;;5096107;28;20422;-70
2022/02/22 02:23:25;;;;;;;0.65;0.65;;;4.50;99.90;;;;;;5103937;28;20023;-70
2022/02/22 02:25:50;;;;;;;1.20;0.80;;;4.40;99.90;;;;;;5099161;27;20039;-70
2022/02/22 02:28:16;;;;;;;1.25;1.08;;;4.40;99.90;;;;;;5104404;27;20150;-70
2022/02/22 02:30:42;;;;;;;5.57;2.50;;;4.40;99.90;;;;;;5097004;27;20114;-70
2022/02/22 02:33:07;;;;;;;1.23;0.93;;;4.30;99.90;;;;;;5093499;28;20024;-69
2022/02/22 02:35:33;;;;;;;7.07;4.05;;;4.40;99.90;;;;;;5106857;28;20016;-70
2022/02/22 02:37:59;;;;;;;4.57;1.95;;;4.40;99.90;;;;;;5109318;27;20459;-70
2022/02/22 02:40:24;;;;;;;3.00;2.13;;;4.40;99.90;;;;;;5113313;27;20099;-70
2022/02/22 02:42:50;;;;;;;12.23;1.30;;;4.40;99.90;;;;;;5084141;28;20028;-70
2022/02/22 02:45:16;;;;;;;3.42;1.77;;;4.50;99.90;;;;;;5107126;28;20076;-70
2022/02/22 02:47:41;;;;;;;25.83;1.88;;;4.50;99.90;;;;;;5107481;28;20030;-70
2022/02/22 02:50:08;;;;;;;6.30;1.40;;;4.60;99.90;;;;;;5107523;28;20436;-70
2022/02/22 02:52:34;;;;;;;6.93;1.98;;;4.60;99.90;;;;;;5085930;28;20081;-70
2022/02/22 02:55:00;;;;;;;2.70;1.45;;;4.60;99.90;;;;;;5106079;28;20032;-70
2022/02/22 02:57:26;;;;;;;6.28;1.88;;;4.70;99.90;;;;;;5104554;28;20099;-70
2022/02/22 02:59:52;;;;;;;3.00;1.38;;;4.70;99.90;;;;;;5089157;28;20111;-70
2022/02/22 03:02:18;;;;;;;4.40;1.60;;;4.80;99.90;;;;;;5103510;28;20096;-70
2022/02/22 03:04:44;;;;;;;1.45;1.30;;;4.80;99.90;;;;;;5104220;28;20099;-70
2022/02/22 03:07:10;;;;;;;8.50;2.45;;;4.80;99.90;;;;;;5093147;28;20027;-70
2022/02/22 03:09:35;;;;;;;6.22;1.67;;;4.70;99.90;;;;;;5085168;28;20032;-70
2022/02/22 03:12:01;;;;;;;9.45;2.72;;;4.60;99.90;;;;;;5104420;28;20450;-70
2022/02/22 03:14:26;;;;;;;1.83;1.15;;;4.50;99.90;;;;;;5102832;28;20020;-70
2022/02/22 03:16:52;;;;;;;10.43;2.00;;;4.40;99.90;;;;;;5093044;28;20120;-70
2022/02/22 03:19:17;;;;;;;14.52;2.08;;;4.40;99.90;;;;;;5106152;28;20027;-70
2022/02/22 03:21:43;;;;;;;2.25;1.00;;;4.40;99.90;;;;;;5103463;28;20467;-70
2022/02/22 03:24:09;;;;;;;10.55;1.38;;;4.40;99.90;;;;;;5087874;28;20028;-70
2022/02/22 03:26:35;;;;;;;5.38;1.67;;;4.40;99.90;;;;;;5108741;28;20027;-70
2022/02/22 03:29:02;;;;;;;11.00;2.30;;;4.40;99.90;;;;;;5104669;28;20054;-70
2022/02/22 03:31:28;;;;;;;32.10;2.78;;;4.40;99.90;;;;;;5103602;28;20055;-70
2022/02/22 03:33:54;;;;;;;3.17;1.10;;;4.40;99.90;;;;;;5103049;28;20019;-70
2022/02/22 03:36:20;;;;;;;2.05;1.20;;;4.50;99.90;;;;;;5105157;28;20028;-70
2022/02/22 03:38:46;;;;;;;30.50;2.00;;;4.50;99.90;;;;;;5104906;27;20046;-70
2022/02/22 03:41:12;;;;;;;5.78;2.30;;;4.50;99.90;;;;;;5104044;28;20038;-70
2022/02/22 03:43:37;;;;;;;3.33;1.80;;;4.60;99.90;;;;;;5107055;27;20027;-70
2022/02/22 03:46:03;;;;;;;17.85;2.35;;;4.60;99.90;;;;;;5086253;28;20095;-70
2022/02/22 03:48:29;;;;;;;2.50;1.13;;;4.60;99.90;;;;;;5108206;27;20092;-70
2022/02/22 03:50:54;;;;;;;4.07;1.67;;;4.60;99.90;;;;;;5111881;27;20111;-70
2022/02/22 03:53:20;;;;;;;6.72;1.58;;;4.70;99.90;;;;;;5093675;28;20089;-70
2022/02/22 03:55:46;;;;;;;9.52;1.65;;;4.60;99.90;;;;;;5113308;27;20428;-71
2022/02/22 03:58:12;;;;;;;9.80;2.25;;;4.50;99.90;;;;;;5113775;27;20032;-71
2022/02/22 04:00:38;;;;;;;7.55;1.70;;;4.50;99.90;;;;;;5092300;28;20065;-71
2022/02/22 04:03:04;;;;;;;9.65;1.95;;;4.50;99.90;;;;;;5104443;28;20030;-71
2022/02/22 04:05:30;;;;;;;6.65;1.52;;;4.40;99.90;;;;;;5104325;28;20012;-71
2022/02/22 04:07:56;;;;;;;2.40;1.60;;;4.40;99.90;;;;;;5103831;28;20095;-71
2022/02/22 04:10:22;;;;;;;2.55;1.42;;;4.40;99.90;;;;;;5084913;28;20138;-71
2022/02/22 04:12:48;;;;;;;26.45;1.75;;;4.30;99.90;;;;;;5106568;27;20035;-70
2022/02/22 04:15:14;;;;;;;8.63;2.45;;;4.20;99.90;;;;;;5104810;28;20383;-70
2022/02/22 04:17:40;;;;;;;1.90;1.52;;;4.10;99.90;;;;;;5101749;28;20039;-70
2022/02/22 04:20:07;;;;;;;15.20;1.80;;;4.20;99.90;;;;;;5089938;28;20020;-70
2022/02/22 04:22:33;;;;;;;2.40;1.80;;;4.00;99.90;;;;;;5104412;28;20076;-70
2022/02/22 04:24:59;;;;;;;3.72;2.35;;;4.00;99.90;;;;;;5091794;28;20114;-70
2022/02/22 04:27:24;;;;;;;2.50;1.17;;;4.00;99.90;;;;;;5106130;27;20735;-70
2022/02/22 04:29:50;;;;;;;9.85;2.47;;;4.00;99.90;;;;;;5109697;27;20040;-70
2022/02/22 04:32:15;;;;;;;4.60;1.73;;;3.90;99.90;;;;;;5110590;27;20023;-70
2022/02/22 04:34:41;;;;;;;5.68;1.85;;;3.90;99.90;;;;;;5093589;28;20028;-70
2022/02/22 04:37:12;;;;;;;2.63;1.42;;;3.80;99.90;;;;;;5106058;28;20085;-70
2022/02/22 04:39:38;;;;;;;7.90;2.03;;;3.80;99.90;;;;;;5081948;28;20043;-70
2022/02/22 04:42:04;;;;;;;1.90;1.30;;;3.90;99.90;;;;;;5097865;28;20123;-70
2022/02/22 04:44:30;;;;;;;7.60;1.52;;;3.80;99.90;;;;;;5101934;28;20027;-70
2022/02/22 04:46:56;;;;;;;1.45;1.00;;;3.80;99.90;;;;;;5098918;28;20016;-70
2022/02/22 04:49:21;;;;;;;3.20;1.42;;;3.80;99.90;;;;;;5086086;28;20089;-70
2022/02/22 04:51:47;;;;;;;2.67;1.27;;;3.80;99.90;;;;;;5110305;27;20019;-71
2022/02/22 04:54:12;;;;;;;0.80;0.80;;;3.80;99.90;;;;;;5096703;28;20016;-70
2022/02/22 04:56:38;;;;;;;9.50;3.53;;;3.80;99.90;;;;;;5092345;27;20431;-70
2022/02/22 04:59:03;;;;;;;5.10;1.80;;;3.80;99.90;;;;;;5107822;27;20027;-70
2022/02/22 05:01:29;;;;;;;20.35;2.70;;;3.80;99.90;;;;;;5084094;28;20024;-71
2022/02/22 05:03:55;;;;;;;21.05;1.48;;;3.80;99.90;;;;;;5102444;27;20483;-71
2022/02/22 05:06:21;;;;;;;0.80;0.80;;;3.90;99.90;;;;;;5089995;28;20107;-70
2022/02/22 05:08:46;;;;;;;7.65;2.13;;;3.90;99.90;;;;;;5092584;27;20058;-71
2022/02/22 05:11:12;;;;;;;10.80;3.40;;;3.90;99.90;;;;;;5095879;28;20541;-71
2022/02/22 05:13:38;;;;;;;3.38;1.35;;;3.90;99.90;;;;;;5102015;28;20024;-71
2022/02/22 05:16:04;;;;;;;4.22;1.92;;;3.90;99.90;;;;;;5090572;28;20024;-71
2022/02/22 05:18:30;;;;;;;7.93;2.88;;;3.80;99.90;;;;;;5085689;28;20019;-71
2022/02/22 05:20:56;;;;;;;3.20;2.05;;;3.80;99.90;;;;;;5121275;28;20536;-71
2022/02/22 05:23:24;;;;;;;2.13;1.30;;;3.70;99.90;;;;;;5107063;28;20100;-71
2022/02/22 05:25:49;;;;;;;2.20;1.25;;;3.70;99.90;;;;;;5110637;27;20059;-67
2022/02/22 05:28:15;;;;;;;33.00;3.20;;;3.70;99.90;;;;;;5117326;27;20523;-66
2022/02/22 05:30:41;;;;;;;3.85;1.60;;;3.70;99.90;;;;;;5101965;27;20063;-66
2022/02/22 05:33:07;;;;;;;7.10;1.95;;;3.70;99.90;;;;;;5104636;27;20031;-67
2022/02/22 05:35:33;;;;;;;2.83;1.65;;;3.70;99.90;;;;;;5122255;27;20020;-67
2022/02/22 05:37:59;;;;;;;15.00;2.15;;;3.60;99.90;;;;;;5126454;27;20081;-66
2022/02/22 05:40:25;;;;;;;4.75;1.77;;;3.70;99.90;;;;;;5105729;27;20069;-67
2022/02/22 05:42:50;;;;;;;4.00;1.38;;;3.70;99.90;;;;;;5119895;27;20487;-67
2022/02/22 05:45:16;;;;;;;4.30;1.92;;;3.70;99.90;;;;;;5101988;28;20043;-67
2022/02/22 05:47:42;;;;;;;20.88;3.05;;;3.70;99.90;;;;;;5100666;27;20514;-67
2022/02/22 05:50:08;;;;;;;4.47;2.70;;;3.70;99.90;;;;;;5104037;27;20442;-67
2022/02/22 05:52:34;;;;;;;6.15;2.15;;;3.80;99.90;;;;;;5111742;27;20103;-67
2022/02/22 05:55:00;;;;;;;15.32;2.05;;;3.70;99.90;;;;;;5106645;27;20315;-67
2022/02/22 05:57:26;;;;;;;3.40;1.50;;;3.80;99.90;;;;;;5121777;27;20075;-67
2022/02/22 05:59:52;;;;;;;2.15;1.00;;;3.90;99.90;;;;;;5085798;27;20031;-67
2022/02/22 06:02:17;;;;;;;5.00;1.10;;;3.90;99.90;;;;;;5118760;27;20099;-67
2022/02/22 06:04:43;;;;;;;14.45;2.40;;;3.90;99.90;;;;;;5122816;27;20106;-67
2022/02/22 06:07:08;;;;;;;12.50;3.05;;;3.90;99.90;;;;;;5117516;27;20093;-67
2022/02/22 06:09:37;;;;;;;5.97;1.92;;;3.90;99.90;;;;;;5125355;27;20063;-67
2022/02/22 06:12:03;;;;;;;13.27;1.95;;;4.00;99.90;;;;;;5120787;27;20065;-67
2022/02/22 06:14:28;;;;;;;8.52;2.97;;;3.90;99.90;;;;;;5122985;27;20027;-67
2022/02/22 06:16:54;;;;;;;1.52;1.25;;;3.90;99.90;;;;;;5120929;27;20020;-67
2022/02/22 06:19:20;;;;;;;9.70;3.30;;;3.90;99.90;;;;;;5102711;27;20058;-67
2022/02/22 06:21:46;;;;;;;3.15;1.52;;;3.80;99.90;;;;;;5119922;27;20381;-67
2022/02/22 06:24:11;;;;;;;7.47;1.60;;;3.90;99.90;;;;;;5108648;27;20050;-67
2022/02/22 06:26:37;;;;;;;9.80;2.83;;;3.90;99.90;;;;;;5094306;27;20442;-67
2022/02/22 06:29:04;;;;;;;12.52;3.40;;;4.00;99.90;;;;;;5106642;27;20065;-67
2022/02/22 06:31:30;;;;;;;5.05;1.77;;;4.00;99.90;;;;;;5090448;28;20105;-67
2022/02/22 06:33:58;;;;;;;1.98;1.45;;;4.00;99.90;;;;;;5093791;28;20016;-67
2022/02/22 06:36:25;;;;;;;1.75;1.60;;;3.90;99.90;;;;;;5104626;27;20031;-67
2022/02/22 06:38:52;;;;;;;6.40;2.40;;;3.90;99.90;;;;;;5100399;28;20032;-67
2022/02/22 06:41:17;;;;;;;5.85;2.45;;;3.80;99.90;;;;;;5082572;28;20012;-67
2022/02/22 06:43:43;;;;;;;11.25;4.57;;;3.80;99.90;;;;;;5092178;28;20015;-68
2022/02/22 06:46:08;;;;;;;7.57;2.47;;;3.80;99.90;;;;;;5109048;27;20055;-67
2022/02/22 06:48:34;;;;;;;14.15;4.50;;;3.70;99.90;;;;;;5095558;28;20019;-67
2022/02/22 06:51:00;;;;;;;4.97;1.73;;;3.70;99.90;;;;;;5089267;28;20016;-67
2022/02/22 06:53:25;;;;;;;12.27;3.33;;;3.70;99.90;;;;;;5107338;27;20031;-67
2022/02/22 06:55:51;;;;;;;1.50;1.05;;;3.80;99.90;;;;;;5104922;27;20024;-67
2022/02/22 06:58:17;;;;;;;9.15;3.20;;;3.90;99.90;;;;;;5091599;27;20024;-67
2022/02/22 07:00:45;;;;;;;4.10;1.83;;;3.90;99.90;;;;;;5109713;27;20157;-67
2022/02/22 07:03:11;;;;;;;5.20;2.25;;;3.90;99.90;;;;;;5113442;27;20031;-67
2022/02/22 07:05:37;;;;;;;2.72;1.20;;;3.90;99.90;;;;;;5115990;27;20024;-67
2022/02/22 07:08:03;;;;;;;1.98;1.40;;;3.90;99.90;;;;;;5120838;27;20023;-67
2022/02/22 07:10:29;;;;;;;12.00;2.47;;;4.00;99.90;;;;;;5120160;27;20516;-67
2022/02/22 07:12:55;;;;;;;17.83;1.73;;;4.00;99.90;;;;;;5106615;27;20055;-67
2022/02/22 07:15:21;;;;;;;17.88;4.03;;;4.00;99.90;;;;;;5091659;27;20031;-68
2022/02/22 07:17:52;;;;;;;1.45;1.17;;;4.00;99.90;;;;;;5103353;27;20027;-67
2022/02/22 07:20:20;;;;;;;4.30;1.55;;;4.10;99.90;;;;;;5098132;27;20059;-67
2022/02/22 07:22:46;;;;;;;3.92;2.35;;;4.10;99.90;;;;;;5109732;27;20019;-67
2022/02/22 07:25:13;;;;;;;3.30;1.83;;;4.20;99.90;;;;;;5095971;28;20384;-67
2022/02/22 07:27:40;;;;;;;5.32;2.15;;;4.30;99.90;;;;;;5101565;27;20571;-67
2022/02/22 07:30:07;;;;;;;26.02;1.63;;;4.30;99.90;;;;;;5111370;27;20409;-67
2022/02/22 07:32:34;;;;;;;2.63;2.17;;;4.30;99.90;;;;;;5107629;28;20023;-67
2022/02/22 07:35:00;;;;;;;4.53;1.65;;;4.30;99.90;;;;;;5112755;27;20098;-67
2022/02/22 07:37:26;;;;;;;4.25;2.00;;;4.30;99.90;;;;;;5104853;27;20520;-67
2022/02/22 07:39:52;;;;;;;5.10;2.65;;;4.30;99.90;;;;;;5108014;27;20023;-67
2022/02/22 07:42:17;;;;;;;18.83;2.00;;;4.20;99.90;;;;;;5099074;27;20051;-67
2022/02/22 07:44:43;;;;;;;3.65;1.42;;;4.30;99.90;;;;;;5101406;27;20024;-67
2022/02/22 07:47:09;;;;;;;1.67;1.45;;;4.40;99.90;;;;;;5086289;28;20599;-67
2022/02/22 07:49:35;;;;;;;2.88;1.65;;;4.40;99.90;;;;;;5107525;27;20394;-67
2022/02/22 07:52:01;;;;;;;4.78;1.45;;;4.40;99.90;;;;;;5117341;27;20072;-67
2022/02/22 07:54:27;;;;;;;18.48;2.97;;;4.40;99.90;;;;;;5100392;27;20119;-67
2022/02/22 07:56:53;;;;;;;5.82;1.58;;;4.30;99.90;;;;;;5101637;27;20116;-67
2022/02/22 07:59:19;;;;;;;5.65;3.70;;;4.30;99.90;;;;;;5103607;27;20032;-67
2022/02/22 08:01:45;;;;;;;3.03;1.50;;;4.50;99.90;;;;;;5086446;27;20547;-67
2022/02/22 08:04:11;;;;;;;6.65;2.38;;;4.70;99.90;;;;;;5103395;27;20099;-67
2022/02/22 08:06:36;;;;;;;8.90;2.65;;;4.90;99.90;;;;;;5105515;28;20037;-67
2022/02/22 08:09:02;;;;;;;14.75;2.63;;;5.00;99.90;;;;;;5094271;27;20027;-67
2022/02/22 08:11:31;;;;;;;10.40;2.47;;;5.00;99.90;;;;;;5105555;27;20092;-67
2022/02/22 08:13:59;;;;;;;8.32;1.67;;;5.10;99.90;;;;;;5106876;28;20651;-67
2022/02/22 08:16:26;;;;;;;2.35;1.73;;;5.10;99.90;;;;;;5106400;27;20016;-67
2022/02/22 08:18:53;;;;;;;2.25;1.65;;;5.00;99.90;;;;;;5104802;27;20019;-67
2022/02/22 08:21:18;;;;;;;6.80;2.50;;;5.10;99.90;;;;;;5105575;27;20417;-67
2022/02/22 08:23:44;;;;;;;12.15;3.42;;;5.20;99.90;;;;;;5105495;27;20027;-67
2022/02/22 08:26:10;;;;;;;5.18;3.25;;;5.50;99.90;;;;;;5108782;27;20016;-67
2022/02/22 08:28:35;;;;;;;6.50;2.40;;;5.70;99.90;;;;;;5089943;28;20039;-67
2022/02/22 08:31:01;;;;;;;9.80;3.05;;;5.80;99.90;;;;;;5101007;27;20026;-67
2022/02/22 08:33:26;;;;;;;2.83;1.77;;;5.80;99.90;;;;;;5103227;28;20035;-67
2022/02/22 08:35:53;;;;;;;11.50;2.50;;;5.80;99.90;;;;;;5101154;28;20051;-67
2022/02/22 08:38:19;;;;;;;8.70;1.63;;;5.80;99.90;;;;;;5103433;27;20023;-67
2022/02/22 08:40:45;;;;;;;3.33;2.05;;;5.90;99.90;;;;;;5087970;28;20051;-67
2022/02/22 08:43:13;;;;;;;20.30;3.70;;;5.90;99.90;;;;;;5105453;28;20024;-67
2022/02/22 08:45:39;;;;;;;9.23;2.92;;;6.00;99.90;;;;;;5106653;27;20026;-67
2022/02/22 08:48:05;;;;;;;17.35;2.67;;;6.20;99.90;;;;;;5091479;28;20088;-67
2022/02/22 08:50:31;;;;;;;4.28;1.95;;;6.40;99.90;;;;;;5101337;28;20468;-67
2022/02/22 08:52:57;;;;;;;10.32;3.13;;;6.60;99.90;;;;;;5106169;27;20472;-67
2022/02/22 08:55:23;;;;;;;5.30;2.13;;;6.60;99.90;;;;;;5101907;28;20070;-67
2022/02/22 08:57:49;;;;;;;14.27;2.70;;;6.70;99.90;;;;;;5105152;27;20020;-67
2022/02/22 09:00:15;;;;;;;7.35;1.88;;;6.70;99.90;;;;;;5103831;27;20028;-67
2022/02/22 09:02:41;;;;;;;5.10;2.33;;;6.70;99.90;;;;;;5091207;28;20093;-67
2022/02/22 09:05:09;;;;;;;5.93;1.92;;;6.60;99.90;;;;;;5115592;27;20038;-67
2022/02/22 09:07:34;;;;;;;3.63;1.80;;;6.50;99.90;;;;;;5102365;28;20038;-67
2022/02/22 09:10:00;;;;;;;3.83;1.80;;;6.50;99.90;;;;;;5102591;28;20047;-67
2022/02/22 09:12:27;;;;;;;5.18;2.58;;;6.80;99.90;;;;;;5109569;28;20023;-67
2022/02/22 09:14:54;;;;;;;6.20;2.03;;;7.20;99.90;;;;;;5104459;28;20020;-67
2022/02/22 09:17:19;;;;;;;4.53;2.08;;;7.40;99.90;;;;;;5105219;28;20414;-67
2022/02/22 09:19:45;;;;;;;6.75;1.80;;;7.70;99.90;;;;;;5109457;27;20031;-67
2022/02/22 09:22:11;;;;;;;4.22;1.60;;;7.60;99.90;;;;;;5107838;28;20028;-67
2022/02/22 09:24:37;;;;;;;5.72;1.85;;;7.20;99.90;;;;;;5104666;28;20039;-67
2022/02/22 09:27:04;;;;;;;25.30;2.90;;;7.20;99.90;;;;;;5105055;28;20044;-67
2022/02/22 09:29:30;;;;;;;16.17;2.42;;;7.50;99.90;;;;;;5104388;28;20553;-67
2022/02/22 09:31:55;;;;;;;3.70;1.77;;;7.70;99.90;;;;;;5082201;28;20028;-67
2022/02/22 09:34:22;;;;;;;3.97;2.15;;;8.00;99.90;;;;;;5102248;28;20442;-67
2022/02/22 09:36:48;;;;;;;2.67;1.15;;;8.30;99.90;;;;;;5101077;28;20028;-67
2022/02/22 09:39:14;;;;;;;10.20;1.55;;;8.30;99.90;;;;;;5094095;28;20116;-67
2022/02/22 09:41:40;;;;;;;12.77;2.38;;;8.40;99.90;;;;;;5101920;28;20080;-67
2022/02/22 09:44:07;;;;;;;8.10;1.80;;;8.20;99.90;;;;;;5102426;28;20049;-67
2022/02/22 09:46:33;;;;;;;13.05;2.38;;;8.10;99.90;;;;;;5112638;28;20510;-67
2022/02/22 09:48:59;;;;;;;12.75;2.40;;;7.90;99.90;;;;;;5115302;28;20757;-67
2022/02/22 09:51:25;;;;;;;2.28;1.20;;;7.80;99.90;;;;;;5119124;28;20094;-67
2022/02/22 09:53:51;;;;;;;0.88;0.88;;;7.50;99.90;;;;;;5111262;28;20035;-67
2022/02/22 09:56:21;;;;;;;8.27;2.55;;;7.50;99.90;;;;;;5119471;28;20072;-67
2022/02/22 09:58:47;;;;;;;;;;;7.40;99.90;;;;;;5102570;28;20046;-68
2022/02/22 10:01:12;;;;;;;3.78;1.33;;;7.40;99.90;;;;;;5107612;28;20002;-67
2022/02/22 10:03:38;;;;;;;5.95;1.88;;;7.50;99.90;;;;;;5103889;28;20027;-67
2022/02/22 10:06:04;;;;;;;14.90;2.05;;;7.50;99.90;;;;;;5090393;28;20375;-67
2022/02/22 10:08:31;;;;;;;4.43;1.40;;;7.60;99.90;;;;;;5112306;27;20072;-67
2022/02/22 10:11:01;;;;;;;4.10;1.38;;;7.60;99.90;;;;;;5090698;28;20036;-67
2022/02/22 10:13:27;;;;;;;10.70;2.55;;;7.50;99.90;;;;;;5094047;28;20683;-67
2022/02/22 10:15:53;;;;;;;2.90;1.08;;;7.40;99.90;;;;;;5093602;28;20119;-67
2022/02/22 10:18:19;;;;;;;9.07;1.70;;;7.50;99.90;;;;;;5109596;27;20091;-67
2022/02/22 10:20:48;;;;;;;5.60;1.52;;;7.50;99.90;;;;;;5108232;28;20034;-67
2022/02/22 10:23:13;;;;;;;6.10;1.98;;;7.80;99.90;;;;;;5100593;28;20028;-67
2022/02/22 10:25:39;;;;;;;3.92;1.85;;;8.00;99.90;;;;;;5108328;27;20471;-67
2022/02/22 10:28:06;;;;;;;4.32;1.77;;;7.90;99.90;;;;;;5094101;27;20058;-67
2022/02/22 10:30:40;;;;;;;6.03;1.85;;;8.10;99.90;;;;;;5111138;27;20032;-67
2022/02/22 10:33:41;;;;;;;5.90;1.77;;;8.40;99.90;;;;;;5106987;28;20030;-67
2022/02/22 10:36:08;;;;;;;5.82;1.55;;;8.30;99.90;;;;;;5046666;28;20037;-67
2022/02/22 10:38:36;;;;;;;3.78;1.00;;;8.50;99.90;;;;;;5109020;27;20019;-67
2022/02/22 10:41:06;;;;;;;4.70;1.77;;;8.70;99.90;;;;;;5105839;27;20054;-67
2022/02/22 10:43:37;;;;;;;5.55;1.85;;;8.40;99.90;;;;;;5104733;28;20028;-67
2022/02/22 10:46:10;;;;;;;3.03;1.38;;;8.30;99.90;;;;;;5105960;27;20403;-67
2022/02/22 10:48:38;;;;;;;2.80;1.55;;;8.20;99.90;;;;;;5096110;28;20028;-67
2022/02/22 10:51:30;;;;;;;7.07;1.33;;;8.40;99.90;;;;;;5106923;27;20036;-67
2022/02/22 10:53:57;;;;;;;6.75;1.73;;;8.30;99.90;;;;;;5106220;27;20031;-67
2022/02/22 10:56:23;;;;;;;7.97;1.60;;;8.10;99.90;;;;;;5093314;28;20088;-67
2022/02/22 10:58:49;;;;;;;6.85;2.00;;;8.20;99.90;;;;;;5109215;27;20098;-67
2022/02/22 11:01:19;;;;;;;16.17;1.52;;;8.10;99.90;;;;;;5106130;28;20020;-67
2022/02/22 11:03:45;;;;;;;;;;;8.20;99.90;;;;;;5109448;27;20443;-67
2022/02/22 11:06:12;;;;;;;1.58;1.00;;;8.20;99.90;;;;;;5110789;27;19911;-67
2022/02/22 11:08:43;;;;;;;2.85;1.30;;;8.30;99.90;;;;;;5108565;27;20039;-67
2022/02/22 11:11:34;;;;;;;3.80;1.35;;;8.30;99.90;;;;;;5078640;28;20022;-67
2022/02/22 11:14:03;;;;;;;4.50;1.63;;;8.50;99.90;;;;;;5101934;28;20507;-67
2022/02/22 11:16:50;;;;;;;7.03;1.75;;;8.50;99.90;;;;;;5114615;27;20522;-67
2022/02/22 11:19:26;;;;;;;0.93;0.80;;;8.50;99.90;;;;;;5106117;27;20433;-67
2022/02/22 11:21:55;;;;;;;7.22;1.63;;;8.60;99.90;;;;;;5107101;27;20054;-67
2022/02/22 11:24:22;;;;;;;8.02;1.88;;;8.60;99.90;;;;;;5111593;27;20498;-67
2022/02/22 11:26:55;;;;;;;4.78;1.73;;;8.50;99.90;;;;;;5120889;27;20423;-67
2022/02/22 11:29:22;;;;;;;1.48;1.02;;;8.50;99.90;;;;;;5111986;27;20115;-67
2022/02/22 11:32:08;;;;;;;8.07;1.50;;;8.50;99.90;;;;;;5103972;28;20019;-67
2022/02/22 11:34:36;;;;;;;5.65;1.67;;;8.60;99.90;;;;;;5105259;27;20438;-67
2022/02/22 11:37:05;;;;;;;6.88;1.25;;;8.60;99.90;;;;;;5086099;28;20446;-67
2022/02/22 11:39:41;;;;;;;4.32;1.70;;;8.50;99.90;;;;;;5106709;27;20012;-67
2022/02/22 11:42:17;;;;;;;3.60;1.70;;;8.60;99.90;;;;;;5101055;28;20055;-67
2022/02/22 11:44:42;;;;;;;6.40;2.10;;;8.40;99.90;;;;;;5092034;28;20161;-67
2022/02/22 11:47:15;;;;;;;2.05;1.10;;;8.40;99.90;;;;;;5103529;28;20555;-68
2022/02/22 11:49:48;;;;;;;6.78;2.17;;;8.40;99.90;;;;;;5103929;27;20024;-67
2022/02/22 11:52:14;;;;;;;3.55;1.70;;;8.40;99.90;;;;;;5104532;28;20020;-67
2022/02/22 11:54:41;;;;;;;2.63;1.58;;;8.60;99.90;;;;;;5089677;28;20016;-67
2022/02/22 11:57:11;;;;;;;3.33;1.08;;;8.60;99.90;;;;;;5090974;28;20024;-67
2022/02/22 11:59:59;;;;;;;14.18;2.08;;;8.70;99.90;;;;;;5087147;28;20026;-67
2022/02/22 12:02:29;;;;;;;6.45;1.98;;;8.60;99.90;;;;;;5090923;27;20475;-67
2022/02/22 12:04:55;;;;;;;6.85;1.85;;;8.60;99.90;;;;;;5102201;28;20024;-67
2022/02/22 12:07:31;;;;;;;12.02;2.45;;;8.70;99.90;;;;;;5110565;27;20050;-67
2022/02/22 12:09:59;;;;;;;4.43;1.65;;;9.00;99.90;;;;;;5104113;27;20035;-67
2022/02/22 12:12:25;;;;;;;4.90;1.35;;;9.00;99.90;;;;;;5088928;28;20064;-67
2022/02/22 12:14:58;;;;;;;4.57;1.65;;;8.90;99.90;;;;;;5102851;27;20024;-67
2022/02/22 12:17:24;;;;;;;5.85;1.80;;;8.80;99.90;;;;;;5104142;28;20019;-67
2022/02/22 12:19:52;;;;;;;1.92;1.20;;;8.60;99.90;;;;;;5085632;28;20026;-67
2022/02/22 12:22:20;;;;;;;4.22;1.80;;;8.40;99.90;;;;;;5099916;27;20031;-67
2022/02/22 12:24:46;;;;;;;5.43;1.80;;;8.30;99.90;;;;;;5088203;28;20023;-68
2022/02/22 12:27:13;;;;;;;7.57;1.58;;;8.40;99.90;;;;;;5103767;27;20050;-67
2022/02/22 12:29:39;;;;;;;4.05;1.30;;;8.50;99.90;;;;;;5105677;27;20028;-67
2022/02/22 12:32:05;;;;;;;4.43;1.38;;;8.50;99.90;;;;;;5098472;28;20020;-67
2022/02/22 12:34:31;;;;;;;4.10;1.40;;;8.60;99.90;;;;;;5109773;27;20023;-67
2022/02/22 12:37:00;;;;;;;5.93;1.65;;;8.60;99.90;;;;;;5110403;27;20072;-67
2022/02/22 12:39:29;;;;;;;8.68;1.88;;;8.50;99.90;;;;;;5103268;27;20023;-67
2022/02/22 12:41:59;;;;;;;6.80;1.80;;;8.60;99.90;;;;;;5089402;28;20031;-67
2022/02/22 12:44:27;;;;;;;3.40;1.58;;;8.50;99.90;;;;;;5084745;28;20031;-68
2022/02/22 12:46:55;;;;;;;8.60;1.45;;;8.60;99.90;;;;;;5092248;27;20040;-67
2022/02/22 12:49:22;;;;;;;11.95;1.58;;;8.50;99.90;;;;;;5100145;27;20028;-67
2022/02/22 12:51:49;;;;;;;6.28;1.90;;;8.60;99.90;;;;;;5111104;27;20418;-67
2022/02/22 12:54:19;;;;;;;12.30;2.05;;;8.60;99.90;;;;;;5105110;28;20817;-67